Time;durP1;ratioP1;P1;durP2;ratioP2;P2;SDS_P1;SDS_P2;PMS_P1;PMS_P2;Temp;Humidity;BMP_temperature;BMP_pressure;BME280_temperature;BME280_humidity;BME280_pressure;Samples;Min_cycle;Max_cycle;Signal;HPM_P1;HPM_P2
2021/12/30 00:01:17;;;;;;;;;0.75;0.75;;;;;19.65;91.08;101316.97;5078362;28;61942;-77
2021/12/30 00:03:44;;;;;;;;;4.50;1.50;;;;;19.59;90.75;101319.53;5062649;28;61814;-77
2021/12/30 00:06:11;;;;;;;;;0.00;0.00;;;;;19.66;90.99;101320.53;5078299;28;61902;-77
2021/12/30 00:08:36;;;;;;;;;0.00;0.00;;;;;19.72;90.78;101328.66;5062325;28;62837;-77
2021/12/30 00:11:03;;;;;;;;;0.00;0.00;;;;;19.76;90.42;101334.03;5062690;28;61920;-77
2021/12/30 00:13:28;;;;;;;;;0.00;0.00;;;;;19.73;90.53;101334.00;5078235;28;62078;-77
2021/12/30 00:15:54;;;;;;;;;0.00;0.00;;;;;19.69;90.29;101337.47;5078005;28;62151;-77
2021/12/30 00:18:21;;;;;;;;;0.00;0.00;;;;;19.66;90.60;101331.19;5077233;28;64773;-77
2021/12/30 00:20:46;;;;;;;;;2.00;2.00;;;;;19.67;90.76;101330.31;5062734;28;61872;-77
2021/12/30 00:23:12;;;;;;;;;0.25;0.25;;;;;19.69;90.75;101325.88;5062322;28;61855;-77
2021/12/30 00:25:41;;;;;;;;;0.50;0.00;;;;;19.54;90.80;101323.91;5078174;28;61941;-77
2021/12/30 00:28:11;;;;;;;;;0.00;0.00;;;;;19.62;90.88;101330.22;5061483;28;61857;-76
2021/12/30 00:30:37;;;;;;;;;3.00;3.00;;;;;19.55;90.94;101331.00;5062501;28;61989;-77
2021/12/30 00:33:03;;;;;;;;;2.00;1.00;;;;;19.65;90.80;101324.06;5061768;28;61778;-77
2021/12/30 00:35:29;;;;;;;;;0.00;0.00;;;;;19.63;90.79;101325.81;5062357;28;61996;-77
2021/12/30 00:37:55;;;;;;;;;0.50;0.00;;;;;19.57;91.02;101331.94;5061629;28;61955;-77
2021/12/30 00:40:21;;;;;;;;;0.00;0.00;;;;;19.54;91.29;101331.91;5062339;28;61820;-77
2021/12/30 00:42:46;;;;;;;;;1.50;0.00;;;;;19.55;91.14;101334.56;5062038;28;62206;-77
2021/12/30 00:45:12;;;;;;;;;0.00;0.00;;;;;19.61;90.98;101340.00;5062517;28;62173;-77
2021/12/30 00:47:37;;;;;;;;;1.00;1.00;;;;;19.63;91.11;101337.38;5060400;28;63624;-77
2021/12/30 00:50:03;;;;;;;;;0.00;0.00;;;;;19.53;91.25;101349.63;5060718;28;62135;-77
2021/12/30 00:52:28;;;;;;;;;0.00;0.00;;;;;19.55;91.41;101349.66;5062117;28;61939;-77
2021/12/30 00:54:54;;;;;;;;;0.00;0.00;;;;;19.58;91.24;101345.28;5062302;28;61912;-77
2021/12/30 00:57:19;;;;;;;;;0.00;0.00;;;;;19.57;91.34;101353.22;5061009;28;61855;-77
2021/12/30 00:59:45;;;;;;;;;0.00;0.00;;;;;19.54;91.49;101353.19;5060851;28;62015;-77
2021/12/30 01:02:10;;;;;;;;;0.00;0.00;;;;;19.53;91.53;101349.63;5061817;28;61780;-77
2021/12/30 01:04:36;;;;;;;;;0.00;0.00;;;;;19.49;91.73;101362.84;5060786;28;61985;-76
2021/12/30 01:07:01;;;;;;;;;0.00;0.00;;;;;19.53;91.72;101367.38;5061524;28;61820;-77
2021/12/30 01:09:27;;;;;;;;;0.00;0.00;;;;;19.54;91.82;101367.41;5061763;28;61765;-77
2021/12/30 01:11:54;;;;;;;;;1.00;0.00;;;;;19.58;91.86;101376.31;5061826;28;62098;-77
2021/12/30 01:14:24;;;;;;;;;0.67;0.00;;;;;19.53;91.76;101389.56;5061972;28;61781;-77
2021/12/30 01:16:53;;;;;;;;;0.00;0.00;;;;;19.55;92.04;101389.59;5059824;28;63582;-77
2021/12/30 01:21:52;;;;;;;;;1.00;1.00;;;;;19.59;92.07;101391.44;5062124;28;62139;-77
2021/12/30 01:24:18;;;;;;;;;0.00;0.00;;;;;19.58;92.20;101393.22;5060455;28;62124;-77
2021/12/30 01:26:44;;;;;;;;;0.00;0.00;;;;;19.50;92.75;101391.28;5059466;28;63572;-77
2021/12/30 01:29:09;;;;;;;;;1.00;1.00;;;;;19.53;93.14;101400.22;5063640;28;62189;-76
2021/12/30 01:31:36;;;;;;;;;0.00;0.00;;;;;19.54;93.20;101398.47;5065109;28;61821;-77
2021/12/30 01:34:04;;;;;;;;;0.75;0.75;;;;;19.53;93.62;101405.53;5047294;28;61908;-76
2021/12/30 01:36:35;;;;;;;;;0.33;0.33;;;;;19.58;93.27;101401.22;5043956;28;61885;-76
2021/12/30 01:39:01;;;;;;;;;1.00;1.00;;;;;19.56;93.54;101399.41;5044710;28;61769;-77
2021/12/30 01:41:26;;;;;;;;;2.00;1.00;;;;;19.59;93.50;101404.75;5044775;28;62279;-77
2021/12/30 01:43:52;;;;;;;;;1.00;1.00;;;;;19.58;93.48;101402.94;5043746;28;61785;-77
2021/12/30 01:46:17;;;;;;;;;0.50;0.50;;;;;19.57;93.34;101412.72;5043080;28;63790;-77
2021/12/30 01:48:43;;;;;;;;;1.00;1.00;;;;;19.54;93.64;101410.00;5043142;28;61852;-77
2021/12/30 01:51:10;;;;;;;;;1.50;1.00;;;;;19.55;93.63;101406.47;5044969;28;61997;-77
2021/12/30 01:53:36;;;;;;;;;0.25;0.00;;;;;19.58;93.38;101414.53;5044376;28;61877;-76
2021/12/30 01:56:03;;;;;;;;;1.00;0.00;;;;;19.54;93.64;101420.66;5059350;28;63629;-76
2021/12/30 01:58:29;;;;;;;;;0.00;0.00;;;;;19.48;93.66;101417.00;5060015;27;62083;-77
2021/12/30 02:00:55;;;;;;;;;1.00;1.00;;;;;19.48;94.02;101422.31;5044529;28;61990;-77
2021/12/30 02:03:21;;;;;;;;;0.00;0.00;;;;;19.54;93.87;101417.13;5044610;28;62022;-77
2021/12/30 02:05:47;;;;;;;;;0.25;0.25;;;;;19.54;93.67;101420.66;5043898;28;61720;-77
2021/12/30 02:08:15;;;;;;;;;0.00;0.00;;;;;19.57;93.51;101419.81;5044240;28;61886;-77
2021/12/30 02:10:43;;;;;;;;;0.00;0.00;;;;;19.55;93.46;101414.44;5044464;28;61766;-77
2021/12/30 02:13:09;;;;;;;;;0.00;0.00;;;;;19.56;93.66;101428.69;5060114;28;61721;-76
2021/12/30 02:15:35;;;;;;;;;2.25;0.00;;;;;19.60;93.51;101425.19;5059065;28;63809;-76
2021/12/30 02:18:02;;;;;;;;;1.75;1.00;;;;;19.57;93.35;101419.81;5044169;28;61831;-77
2021/12/30 02:20:47;;;;;;;;;4.00;0.00;;;;;19.57;93.29;101433.13;5044369;28;62115;-77
2021/12/30 02:23:23;;;;;;;;;1.00;1.00;;;;;19.58;93.36;101440.22;5042896;28;61797;-77
2021/12/30 02:25:51;;;;;;;;;1.00;0.00;;;;;19.58;93.02;101437.56;5043324;28;61959;-77
2021/12/30 02:28:19;;;;;;;;;0.75;0.75;;;;;19.58;92.94;101430.50;5045055;28;62211;-77
2021/12/30 02:30:45;;;;;;;;;0.00;0.00;;;;;19.54;92.98;101438.41;5043950;28;62016;-77
2021/12/30 02:33:11;;;;;;;;;0.00;0.00;;;;;19.58;92.86;101443.81;5055073;28;61948;-77
2021/12/30 02:35:36;;;;;;;;;0.75;0.00;;;;;19.58;92.71;101443.81;5062054;28;63684;-77
2021/12/30 02:38:04;;;;;;;;;0.00;0.00;;;;;19.65;92.28;101450.16;5063875;28;61856;-77
2021/12/30 02:40:35;;;;;;;;;0.00;0.00;;;;;19.59;92.67;101453.59;5063070;28;61893;-77
2021/12/30 02:43:01;;;;;;;;;0.00;0.00;;;;;19.58;92.30;101456.22;5064219;28;61737;-77
2021/12/30 02:45:26;;;;;;;;;0.00;0.00;;;;;19.67;91.93;101459.06;5063535;28;62017;-77
2021/12/30 02:47:52;;;;;;;;;0.00;0.00;;;;;19.64;91.91;101466.09;5064110;28;62325;-77
2021/12/30 02:50:17;;;;;;;;;0.00;0.00;;;;;19.66;92.00;101477.69;5064036;28;61757;-76
2021/12/30 02:52:43;;;;;;;;;0.00;0.00;;;;;19.67;91.81;101475.03;5063723;28;61680;-77
2021/12/30 02:55:10;;;;;;;;;0.00;0.00;;;;;19.69;91.59;101475.97;5063101;28;62759;-77
2021/12/30 02:57:36;;;;;;;;;0.00;0.00;;;;;19.63;91.66;101481.19;5062489;28;62166;-77
2021/12/30 03:00:05;;;;;;;;;0.00;0.00;;;;;19.58;91.49;101473.13;5079373;28;61716;-77
2021/12/30 03:02:31;;;;;;;;;0.00;0.00;;;;;19.62;91.53;101479.38;5064231;28;62117;-77
2021/12/30 03:04:56;;;;;;;;;0.00;0.00;;;;;19.65;91.35;101475.91;5078482;28;63663;-77
2021/12/30 03:07:22;;;;;;;;;0.00;0.00;;;;;19.54;91.48;101478.38;5063540;28;61850;-77
2021/12/30 03:09:48;;;;;;;;;0.25;0.00;;;;;19.64;91.31;101477.63;5063756;28;61928;-77
2021/12/30 03:12:13;;;;;;;;;0.75;0.00;;;;;19.60;91.16;101468.72;5063845;28;62252;-76
2021/12/30 03:14:40;;;;;;;;;0.00;0.00;;;;;19.64;91.00;101468.75;5062998;28;61845;-77
2021/12/30 03:17:06;;;;;;;;;0.33;0.00;;;;;19.60;90.97;101471.38;5063645;28;62031;-77
2021/12/30 03:19:32;;;;;;;;;1.50;0.00;;;;;19.66;90.75;101470.56;5079060;28;62295;-77
2021/12/30 03:21:58;;;;;;;;;0.00;0.00;;;;;19.59;91.16;101482.88;5063315;28;61847;-77
2021/12/30 03:24:24;;;;;;;;;0.00;0.00;;;;;19.64;90.59;101472.31;5078517;28;63559;-76
2021/12/30 03:26:49;;;;;;;;;0.00;0.00;;;;;19.67;90.66;101469.72;5063007;28;62079;-77
2021/12/30 03:29:15;;;;;;;;;0.00;0.00;;;;;19.52;90.90;101482.75;5063585;28;61947;-76
2021/12/30 03:31:40;;;;;;;;;0.00;0.00;;;;;19.57;90.84;101478.41;5063813;28;61746;-76
2021/12/30 03:34:05;;;;;;;;;0.00;0.00;;;;;19.52;90.76;101477.44;5061886;28;61895;-77
2021/12/30 03:36:33;;;;;;;;;1.00;0.00;;;;;19.59;90.78;101466.91;5063015;28;61734;-77
2021/12/30 03:38:59;;;;;;;;;0.75;0.00;;;;;19.58;90.44;101464.19;5078845;28;62479;-77
2021/12/30 03:41:27;;;;;;;;;0.00;0.00;;;;;19.60;90.63;101463.38;5063530;28;61987;-77
2021/12/30 03:43:54;;;;;;;;;0.00;0.00;;;;;19.57;90.37;101460.66;5062365;28;61815;-76
2021/12/30 03:46:20;;;;;;;;;0.00;0.00;;;;;19.60;90.16;101459.81;5063225;28;61789;-77
2021/12/30 03:48:46;;;;;;;;;0.00;0.00;;;;;19.55;90.33;101456.16;5063042;28;62039;-77
2021/12/30 03:51:21;;;;;;;;;0.00;0.00;;;;;19.58;90.28;101451.81;5062593;28;61831;-77
2021/12/30 03:53:49;;;;;;;;;0.00;0.00;;;;;19.58;90.24;101450.88;5062591;28;61896;-77
2021/12/30 03:56:16;;;;;;;;;0.25;0.00;;;;;19.60;90.16;101455.41;5062661;28;62036;-76
2021/12/30 03:58:43;;;;;;;;;0.25;0.00;;;;;19.56;90.28;101463.31;5057753;28;62169;-76
2021/12/30 04:01:10;;;;;;;;;0.75;0.00;;;;;19.62;90.29;101463.38;5059259;28;61706;-77
2021/12/30 04:03:36;;;;;;;;;0.00;0.00;;;;;19.59;89.94;101455.38;5062252;28;63232;-76
2021/12/30 04:06:02;;;;;;;;;0.00;0.00;;;;;19.61;89.69;101451.84;5062350;28;61821;-76
2021/12/30 04:08:28;;;;;;;;;0.00;0.00;;;;;19.62;90.07;101455.41;5063136;28;61927;-77
2021/12/30 04:10:55;;;;;;;;;0.00;0.00;;;;;19.67;89.88;101463.50;5062823;28;62151;-77
2021/12/30 04:13:20;;;;;;;;;0.00;0.00;;;;;19.60;89.73;101458.06;5062192;28;62563;-76
2021/12/30 04:15:46;;;;;;;;;0.00;0.00;;;;;19.69;89.71;101459.06;5062672;28;61980;-77
2021/12/30 04:18:12;;;;;;;;;2.00;0.25;;;;;19.75;89.35;101469.88;5062386;28;61813;-77
2021/12/30 04:20:37;;;;;;;;;0.00;0.00;;;;;19.73;89.10;101467.22;5062626;28;61824;-76
2021/12/30 04:23:02;;;;;;;;;1.00;0.00;;;;;19.73;88.95;101469.88;5077677;28;63543;-77
2021/12/30 04:25:28;;;;;;;;;0.00;0.00;;;;;19.75;89.08;101470.78;5062430;28;61913;-76
2021/12/30 04:27:53;;;;;;;;;0.00;0.00;;;;;19.78;88.89;101467.28;5062551;28;61840;-77
2021/12/30 04:30:19;;;;;;;;;1.00;0.00;;;;;19.77;89.03;101457.47;5062678;28;61992;-76
2021/12/30 04:32:44;;;;;;;;;0.00;0.00;;;;;19.76;88.63;101451.25;5061632;28;61904;-76
2021/12/30 04:35:12;;;;;;;;;0.00;0.00;;;;;19.82;88.69;101447.81;5061643;28;62027;-77
2021/12/30 04:37:38;;;;;;;;;0.00;0.00;;;;;19.84;88.66;101443.41;5062569;28;61801;-77
2021/12/30 04:40:05;;;;;;;;;0.00;0.00;;;;;19.82;88.29;101453.16;5077882;27;62034;-77
2021/12/30 04:42:31;;;;;;;;;1.00;0.00;;;;;19.79;88.20;101448.66;5060520;28;63871;-77
2021/12/30 04:44:56;;;;;;;;;0.00;0.00;;;;;19.79;88.12;101453.06;5077826;28;61789;-77
2021/12/30 04:47:22;;;;;;;;;0.00;0.00;;;;;19.81;88.16;101456.66;5077463;28;61848;-77
2021/12/30 04:49:49;;;;;;;;;0.25;0.00;;;;;19.87;88.15;101470.09;5078085;27;61832;-76
2021/12/30 04:52:15;;;;;;;;;1.00;0.00;;;;;19.89;87.47;101470.13;5061400;28;62118;-77
2021/12/30 04:54:40;;;;;;;;;1.75;0.00;;;;;19.78;87.21;101476.16;5062132;28;62143;-77
2021/12/30 04:57:06;;;;;;;;;1.33;0.00;;;;;19.73;87.60;101479.59;5061994;28;61884;-77
2021/12/30 04:59:31;;;;;;;;;0.00;0.00;;;;;19.69;87.32;101486.63;5062506;28;61682;-76
2021/12/30 05:01:58;;;;;;;;;1.00;0.00;;;;;19.63;87.44;101497.16;5061320;28;62311;-76
2021/12/30 05:04:24;;;;;;;;;0.00;0.00;;;;;19.55;87.70;101497.00;5064225;28;62063;-77
2021/12/30 05:06:49;;;;;;;;;0.00;0.00;;;;;19.48;87.77;101495.09;5065699;28;62232;-76
2021/12/30 05:09:15;;;;;;;;;0.00;0.00;;;;;19.50;87.48;101500.47;5065601;28;62165;-77
2021/12/30 05:11:41;;;;;;;;;0.00;0.00;;;;;19.55;87.37;101502.34;5063742;28;63709;-77
2021/12/30 05:14:08;;;;;;;;;0.00;0.00;;;;;19.59;87.48;101506.84;5065514;28;62016;-77
2021/12/30 05:16:34;;;;;;;;;0.00;0.00;;;;;19.58;87.57;101502.41;5065336;28;61752;-76
2021/12/30 05:19:00;;;;;;;;;0.00;0.00;;;;;19.62;87.21;101503.34;5065543;28;61808;-77
2021/12/30 05:21:25;;;;;;;;;0.00;0.00;;;;;19.60;87.38;101498.00;5064599;28;61733;-77
2021/12/30 05:23:51;;;;;;;;;0.00;0.00;;;;;19.63;87.25;101496.28;5064090;28;61835;-77
2021/12/30 05:26:18;;;;;;;;;0.00;0.00;;;;;19.61;87.24;101490.91;5065280;28;61947;-77
2021/12/30 05:28:43;;;;;;;;;0.75;0.00;;;;;19.53;87.40;101500.53;5065524;28;61709;-77
2021/12/30 05:31:09;;;;;;;;;0.00;0.00;;;;;19.54;87.84;101497.00;5064594;28;62749;-77
2021/12/30 05:33:34;;;;;;;;;0.00;0.00;;;;;19.48;87.81;101499.53;5064184;28;61929;-76
2021/12/30 05:36:00;;;;;;;;;0.00;0.00;;;;;19.37;87.92;101504.66;5064752;28;61840;-77
2021/12/30 05:38:26;;;;;;;;;0.50;0.00;;;;;19.39;88.05;101518.91;5080065;28;62037;-77
2021/12/30 05:40:51;;;;;;;;;0.50;0.00;;;;;19.32;87.97;101539.19;5063869;28;62791;-77
2021/12/30 05:43:17;;;;;;;;;2.00;1.00;;;;;19.20;88.70;101528.28;5063890;28;61904;-76
2021/12/30 05:45:43;;;;;;;;;2.00;0.00;;;;;19.17;88.84;101534.44;5064184;28;61915;-77
2021/12/30 05:48:08;;;;;;;;;0.00;0.00;;;;;19.16;88.56;101531.72;5079873;28;62073;-76
2021/12/30 05:50:34;;;;;;;;;0.00;0.00;;;;;19.07;89.11;101536.88;5062831;28;61841;-77
2021/12/30 05:53:00;;;;;;;;;1.00;1.00;;;;;19.07;89.34;101529.78;5064034;28;61756;-76
2021/12/30 05:55:28;;;;;;;;;2.50;0.00;;;;;19.10;89.30;101542.25;5079179;28;61753;-77
2021/12/30 05:57:54;;;;;;;;;1.25;0.00;;;;;19.00;89.32;101536.72;5064161;28;61939;-76
2021/12/30 06:00:22;;;;;;;;;2.00;0.00;;;;;18.97;89.61;101544.63;5062948;28;62148;-76
2021/12/30 06:02:48;;;;;;;;;3.25;1.00;;;;;18.96;89.13;101540.19;5063701;28;62222;-76
2021/12/30 06:05:14;;;;;;;;;0.33;0.00;;;;;18.94;89.35;101547.22;5079259;27;62005;-77
2021/12/30 06:07:39;;;;;;;;;2.75;1.00;;;;;18.90;89.60;101548.03;5063716;28;61962;-76
2021/12/30 06:10:05;;;;;;;;;3.25;0.50;;;;;18.85;89.68;101547.00;5063068;28;61817;-77
2021/12/30 06:12:31;;;;;;;;;1.00;1.00;;;;;18.82;89.68;101544.28;5063423;28;61748;-76
2021/12/30 06:14:57;;;;;;;;;1.00;1.00;;;;;18.76;89.74;101538.78;5062893;28;61875;-76
2021/12/30 06:17:23;;;;;;;;;3.25;0.25;;;;;18.77;89.51;101548.59;5063499;28;61905;-77
2021/12/30 06:19:49;;;;;;;;;0.50;0.50;;;;;18.73;89.59;101544.94;5062794;28;61827;-78
2021/12/30 06:22:15;;;;;;;;;3.00;2.00;;;;;18.70;89.70;101544.88;5063258;28;61918;-78
2021/12/30 06:24:41;;;;;;;;;1.75;0.75;;;;;18.70;89.48;101547.53;5078825;28;61976;-78
2021/12/30 06:27:07;;;;;;;;;1.25;0.25;;;;;18.68;89.70;101558.97;5063246;28;61958;-78
2021/12/30 06:29:34;;;;;;;;;0.25;0.25;;;;;18.66;89.42;101558.03;5062244;28;62090;-77
2021/12/30 06:32:00;;;;;;;;;1.00;1.00;;;;;18.64;89.41;101555.38;5062365;28;61745;-78
2021/12/30 06:34:25;;;;;;;;;2.75;2.00;;;;;18.59;89.11;101565.91;5058387;28;61715;-78
2021/12/30 06:36:51;;;;;;;;;3.40;0.60;;;;;18.59;89.19;101562.31;4987009;28;1614588;-78
2021/12/30 06:39:16;;;;;;;;;1.75;1.00;;;;;18.60;89.01;101567.69;5043400;28;61966;-78
2021/12/30 06:41:42;;;;;;;;;1.50;1.00;;;;;18.60;89.21;101566.81;5044008;28;61697;-78
2021/12/30 06:44:07;;;;;;;;;2.50;1.00;;;;;18.58;89.18;101564.09;5044006;28;61956;-77
2021/12/30 06:46:33;;;;;;;;;1.00;1.00;;;;;18.58;89.22;101574.72;5059459;28;62411;-78
2021/12/30 06:48:59;;;;;;;;;2.25;1.75;;;;;18.53;89.38;101573.72;5043299;28;62491;-78
2021/12/30 06:51:26;;;;;;;;;1.75;1.00;;;;;18.56;89.28;101575.56;5043943;28;61908;-78
2021/12/30 06:53:55;;;;;;;;;0.75;0.75;;;;;18.54;89.34;101583.50;5059368;28;62012;-78
2021/12/30 06:56:24;;;;;;;;;1.75;0.50;;;;;18.56;89.24;101580.88;5068221;28;62228;-77
2021/12/30 06:58:50;;;;;;;;;3.00;2.25;;;;;18.49;89.15;101584.25;5067365;27;64527;-76
2021/12/30 07:01:15;;;;;;;;;3.00;1.75;;;;;18.41;89.40;101596.47;5053045;28;62398;-76
2021/12/30 07:03:41;;;;;;;;;2.50;1.00;;;;;18.43;89.09;101597.41;5067126;28;62038;-76
2021/12/30 07:06:07;;;;;;;;;4.00;1.75;;;;;18.40;89.28;101600.84;5054045;28;61761;-76
2021/12/30 07:08:33;;;;;;;;;4.25;1.00;;;;;18.30;89.20;101596.19;5053570;28;61933;-76
2021/12/30 07:10:59;;;;;;;;;1.00;1.00;;;;;18.41;88.99;101600.00;5052555;28;61935;-76
2021/12/30 07:13:25;;;;;;;;;4.50;1.50;;;;;18.41;88.69;101585.81;5052287;28;62097;-77
2021/12/30 07:15:51;;;;;;;;;4.00;1.25;;;;;18.42;88.46;101599.13;5051394;28;62063;-79
2021/12/30 07:18:16;;;;;;;;;3.00;1.25;;;;;18.47;88.55;101599.28;5042528;28;61882;-76
2021/12/30 07:20:42;;;;;;;;;3.25;1.50;;;;;18.48;88.37;101598.41;5058597;28;62013;-76
2021/12/30 07:23:07;;;;;;;;;2.25;1.25;;;;;18.58;88.02;101603.09;5051196;28;61755;-76
2021/12/30 07:25:33;;;;;;;;;5.25;2.00;;;;;18.53;87.66;101607.38;5062799;28;62124;-76
2021/12/30 07:27:59;;;;;;;;;3.75;2.00;;;;;18.63;87.41;101612.06;5061815;28;61905;-76
2021/12/30 07:30:26;;;;;;;;;5.00;2.00;;;;;18.57;86.56;101617.22;5061270;28;62174;-76
2021/12/30 07:32:52;;;;;;;;;10.00;2.00;;;;;18.69;86.72;101620.19;5049192;28;62150;-76
2021/12/30 07:35:23;;;;;;;;;1.25;0.00;;;;;18.74;86.27;101620.31;5061815;28;62137;-76
2021/12/30 07:37:49;;;;;;;;;5.50;1.25;;;;;18.78;86.12;101620.44;5062743;28;63031;-76
2021/12/30 07:40:16;;;;;;;;;7.50;2.00;;;;;18.75;85.77;101630.09;5062640;28;61873;-76
2021/12/30 07:42:43;;;;;;;;;1.50;1.25;;;;;18.78;86.06;101623.09;5061843;28;62034;-76
2021/12/30 07:45:10;;;;;;;;;4.75;2.00;;;;;18.79;85.61;101629.34;5077841;27;62040;-76
2021/12/30 07:47:36;;;;;;;;;2.00;2.00;;;;;18.77;85.19;101618.63;5061966;28;61800;-76
2021/12/30 07:50:03;;;;;;;;;6.75;3.50;;;;;18.80;85.37;101624.03;5047959;28;61869;-76
2021/12/30 07:52:29;;;;;;;;;1.00;1.00;;;;;18.80;85.16;101632.03;5042644;28;61941;-76
2021/12/30 07:54:54;;;;;;;;;6.50;2.00;;;;;18.79;84.81;101637.34;5042472;28;62045;-76
2021/12/30 07:57:22;;;;;;;;;5.00;2.00;;;;;18.83;84.69;101641.88;5057078;28;63535;-76
2021/12/30 07:59:52;;;;;;;;;8.00;2.00;;;;;18.84;84.60;101656.94;5042912;28;61808;-76
2021/12/30 08:02:19;;;;;;;;;3.75;2.50;;;;;18.79;84.34;101659.50;5062253;28;62029;-76
2021/12/30 08:04:44;;;;;;;;;2.75;1.00;;;;;18.90;84.59;101664.19;5078304;27;61979;-76
2021/12/30 08:07:10;;;;;;;;;3.75;1.75;;;;;18.93;84.31;101665.16;5061052;28;61740;-77
2021/12/30 08:09:35;;;;;;;;;4.00;1.00;;;;;18.91;83.79;101665.97;5062480;28;61809;-77
2021/12/30 08:12:01;;;;;;;;;3.75;2.75;;;;;18.90;83.92;101664.19;5062397;28;61812;-77
2021/12/30 08:14:29;;;;;;;;;4.00;3.00;;;;;18.92;83.85;101675.78;5062943;28;61806;-77
2021/12/30 08:16:55;;;;;;;;;1.25;1.25;;;;;18.83;83.99;101688.81;5061686;28;61944;-77
2021/12/30 08:19:21;;;;;;;;;2.00;2.00;;;;;18.99;83.14;101696.34;5060907;28;61910;-77
2021/12/30 08:21:46;;;;;;;;;2.00;1.50;;;;;18.95;83.60;101698.00;5062858;28;61636;-77
2021/12/30 08:24:12;;;;;;;;;2.75;2.25;;;;;18.94;83.20;101698.88;5062397;28;61904;-77
2021/12/30 08:26:38;;;;;;;;;5.50;1.00;;;;;18.93;83.32;101699.72;5060210;28;63961;-77
2021/12/30 08:29:05;;;;;;;;;5.75;2.75;;;;;18.94;83.42;101701.56;5062316;28;62225;-76
2021/12/30 08:31:32;;;;;;;;;7.50;2.00;;;;;18.97;83.49;101703.38;5062389;28;61915;-77
2021/12/30 08:33:58;;;;;;;;;7.00;2.75;;;;;18.92;83.42;101711.25;5061692;28;62120;-77
2021/12/30 08:36:23;;;;;;;;;5.25;2.00;;;;;18.93;83.52;101723.69;5061623;28;61963;-77
2021/12/30 08:38:49;;;;;;;;;9.25;1.25;;;;;18.93;83.42;101720.13;5062092;28;62387;-77
2021/12/30 08:41:15;;;;;;;;;4.50;2.00;;;;;18.86;83.53;101727.06;5061805;28;61802;-77
2021/12/30 08:43:40;;;;;;;;;6.50;3.50;;;;;18.83;83.59;101728.72;5051740;28;62295;-77
2021/12/30 08:46:06;;;;;;;;;0.75;0.00;;;;;18.98;83.75;101730.03;5041412;28;62199;-77
2021/12/30 08:48:31;;;;;;;;;9.25;3.00;;;;;19.03;83.37;101718.59;5057369;28;61879;-77
2021/12/30 08:50:57;;;;;;;;;10.50;2.25;;;;;19.08;83.28;101722.28;5040539;28;61913;-77
2021/12/30 08:53:25;;;;;;;;;4.25;1.00;;;;;19.10;83.12;101716.13;5052064;28;61983;-77
2021/12/30 08:55:52;;;;;;;;;2.50;2.00;;;;;19.13;83.33;101718.88;5059981;28;63352;-77
2021/12/30 08:58:18;;;;;;;;;8.25;5.25;;;;;19.10;82.74;101716.13;5077528;28;61785;-77
2021/12/30 09:00:46;;;;;;;;;13.50;6.75;;;;;19.18;83.00;101718.97;5062048;28;61975;-77
2021/12/30 09:03:14;;;;;;;;;8.25;4.00;;;;;19.18;82.99;101718.97;5055051;27;62235;-77
2021/12/30 09:05:39;;;;;;;;;5.75;2.75;;;;;19.15;82.79;101725.13;5052256;28;61828;-77
2021/12/30 09:08:05;;;;;;;;;6.25;3.00;;;;;19.21;82.53;101725.25;5060200;28;61854;-77
2021/12/30 09:10:35;;;;;;;;;2.25;1.00;;;;;19.23;82.85;101729.72;5061865;28;62174;-76
2021/12/30 09:13:01;;;;;;;;;4.75;4.00;;;;;19.27;82.73;101737.81;5062028;28;61837;-76
2021/12/30 09:15:29;;;;;;;;;4.75;4.75;;;;;19.32;82.71;101736.19;5061089;28;61695;-76
2021/12/30 09:17:57;;;;;;;;;6.50;2.75;;;;;19.30;82.59;101739.66;5061868;28;61777;-76
2021/12/30 09:20:23;;;;;;;;;5.50;4.00;;;;;19.36;82.37;101732.69;5060191;28;61765;-76
2021/12/30 09:22:50;;;;;;;;;6.25;3.75;;;;;19.34;82.02;101739.75;5061901;28;61915;-76
2021/12/30 09:25:19;;;;;;;;;5.75;2.50;;;;;19.25;82.63;101742.22;5060857;28;61971;-76
2021/12/30 09:27:45;;;;;;;;;3.25;2.00;;;;;19.39;82.24;101745.22;5061840;28;61856;-76
2021/12/30 09:30:13;;;;;;;;;9.00;4.25;;;;;19.46;82.06;101748.91;5060022;28;62055;-76
2021/12/30 09:32:40;;;;;;;;;6.25;3.75;;;;;19.52;81.92;101744.63;5061550;28;61798;-76
2021/12/30 09:35:07;;;;;;;;;9.75;7.75;;;;;19.92;80.04;101747.31;5051743;28;61979;-76
2021/12/30 09:37:33;;;;;;;;;4.50;4.00;;;;;20.06;79.74;101743.19;5066669;27;61732;-76
2021/12/30 09:39:59;;;;;;;;;7.75;2.00;;;;;20.14;79.52;101748.69;5051157;28;62353;-76
2021/12/30 09:42:24;;;;;;;;;8.25;3.00;;;;;20.19;78.85;101757.66;5049902;28;61961;-76
2021/12/30 09:44:50;;;;;;;;;6.25;2.50;;;;;20.11;78.55;101752.16;5055478;28;62105;-76
2021/12/30 09:47:16;;;;;;;;;2.50;1.75;;;;;20.12;78.87;101763.75;5053408;28;62282;-76
2021/12/30 09:49:41;;;;;;;;;6.50;3.25;;;;;20.23;78.79;101754.19;5060480;28;61793;-76
2021/12/30 09:52:06;;;;;;;;;5.50;3.00;;;;;20.21;78.15;101755.91;5064955;28;61809;-76
2021/12/30 09:54:32;;;;;;;;;4.25;2.00;;;;;20.19;78.24;101755.88;5079753;28;65002;-76
2021/12/30 09:56:58;;;;;;;;;6.50;4.50;;;;;20.23;78.60;101768.41;5080130;28;61987;-77
2021/12/30 09:59:25;;;;;;;;;4.50;3.75;;;;;20.25;77.82;101765.78;5055594;28;61841;-77
2021/12/30 10:01:51;;;;;;;;;4.00;2.00;;;;;20.27;77.92;101764.06;5052076;28;61912;-77
2021/12/30 10:04:17;;;;;;;;;4.00;3.00;;;;;20.39;78.15;101764.31;5057946;28;62014;-76
2021/12/30 10:06:45;;;;;;;;;7.75;3.75;;;;;20.45;78.04;101765.28;5064435;28;62292;-77
2021/12/30 10:09:13;;;;;;;;;9.75;3.00;;;;;20.43;77.87;101768.78;5064861;28;62198;-76
2021/12/30 10:11:52;;;;;;;;;2.25;2.00;;;;;20.50;77.86;101775.19;5063331;28;61921;-77
2021/12/30 10:14:36;;;;;;;;;8.25;4.00;;;;;20.53;77.75;101772.56;5055770;28;62099;-77
2021/12/30 10:17:23;;;;;;;;;10.75;4.00;;;;;20.59;77.26;101767.38;5063247;28;61924;-77
2021/12/30 10:19:50;;;;;;;;;5.00;3.50;;;;;20.68;77.66;101780.00;5063445;28;61915;-82
2021/12/30 10:22:19;;;;;;;;;4.25;2.75;;;;;20.77;76.72;101776.59;5055901;28;62046;-81
2021/12/30 10:24:46;;;;;;;;;4.25;2.25;;;;;20.78;76.67;101773.03;5051122;28;61742;-80
2021/12/30 10:27:26;;;;;;;;;4.75;3.00;;;;;20.85;76.83;101782.09;5055616;28;62031;-80
2021/12/30 10:29:54;;;;;;;;;7.25;3.00;;;;;20.90;77.06;101783.06;5051861;28;61805;-76
2021/12/30 10:32:28;;;;;;;;;2.75;2.50;;;;;20.92;76.85;101781.31;5062722;28;62135;-76
2021/12/30 10:35:13;;;;;;;;;3.25;2.25;;;;;20.95;76.79;101765.34;5079095;27;63665;-77
2021/12/30 10:37:43;;;;;;;;;3.75;1.75;;;;;21.00;76.23;101766.34;5062140;28;61902;-76
2021/12/30 10:40:28;;;;;;;;;5.00;2.25;;;;;21.10;75.86;101767.38;5058949;28;62056;-77
2021/12/30 10:43:29;;;;;;;;;3.25;1.75;;;;;21.11;76.28;101766.50;5054040;28;62473;-77
2021/12/30 10:46:13;;;;;;;;;3.00;2.00;;;;;21.17;76.25;101759.50;5055475;28;61792;-76
2021/12/30 10:49:00;;;;;;;;;4.50;3.00;;;;;21.19;75.43;101764.88;5052216;28;62108;-77
2021/12/30 10:51:36;;;;;;;;;2.00;1.75;;;;;21.26;75.43;101756.06;5046795;28;61976;-77
2021/12/30 10:54:21;;;;;;;;;4.25;3.25;;;;;21.33;75.75;101757.97;5043606;28;61949;-77
2021/12/30 10:56:57;;;;;;;;;1.00;0.75;;;;;21.45;75.10;101762.66;5058201;28;64037;-77
2021/12/30 10:59:27;;;;;;;;;4.00;3.00;;;;;21.55;74.67;101756.56;5059062;28;61882;-77
2021/12/30 11:02:03;;;;;;;;;2.25;1.25;;;;;21.61;74.73;101747.72;5057882;28;61785;-77
2021/12/30 11:04:36;;;;;;;;;1.00;1.00;;;;;21.62;74.14;101755.78;5043537;28;62072;-77
2021/12/30 11:07:03;;;;;;;;;5.25;3.00;;;;;21.59;74.30;101754.81;5042885;28;62679;-77
2021/12/30 11:09:29;;;;;;;;;4.00;3.00;;;;;21.57;73.83;101756.56;5054270;28;61819;-77
2021/12/30 11:12:00;;;;;;;;;1.50;1.50;;;;;21.66;74.31;101759.41;5062294;28;62062;-77
2021/12/30 11:14:31;;;;;;;;;5.75;3.00;;;;;21.71;73.83;101759.47;5063687;28;61991;-77
2021/12/30 11:17:06;;;;;;;;;4.75;2.50;;;;;21.65;73.57;101765.59;5062854;28;62779;-77
2021/12/30 11:19:35;;;;;;;;;2.25;2.25;;;;;21.74;73.99;101763.06;5062864;28;61940;-76
2021/12/30 11:22:03;;;;;;;;;12.00;6.75;;;;;21.74;73.23;101755.03;5062923;28;61912;-77
2021/12/30 11:24:31;;;;;;;;;3.25;3.25;;;;;21.72;73.29;101761.25;5060989;28;61860;-77
2021/12/30 11:26:57;;;;;;;;;6.50;3.00;;;;;21.75;73.54;101770.22;5058190;28;62176;-77